Aérodrome :
LOGIN :

S'inscrire | Disclaimer

   EN    FR    IT 

 










Légende :    VFR   VFR Marginal   IFR   IFR Intensif   IFR Très Intensif
Visi : 
Plafond : 
>= 8 km
>= 3000ft
5 à 8 km
1000 à 3000 ft
1500m à 5 km
500 à 1000 ft
800 à 1500m
200 à 500 ft
< 800m
< 200 ft
Symboles :   Orages  Brouillard  Fortes neiges  Fortes précipitations  Vent > 20 kt
SIGMETs :   Divers  Orages  Givrage  Turbulence  Onde Orograph.  Cendres Volcan.







- Altitude de l'aérodrome : 144 ft
- Code IATA : PGF
- Voir les cartes d'approche


LFMP - Perpignan

DERNIER METAR :
  • 170330Z AUTO VRB02KT 4000 BR FEW004 15/14 Q1023 TEMPO 0200 FG VV///

METARs EXPIRÉS :
  • 170300Z AUTO 36004KT 4000 BR FEW003 15/14 Q1023 TEMPO 0200 FG VV/// BECMG 14010KT
  • 170230Z AUTO 35005KT 5000 BR NSC 15/15 Q1023 TEMPO 0200 FG VV/// BECMG 14010KT
  • 170200Z AUTO 36004KT 5000 BR VV/// 15/14 Q1024
  • 170130Z AUTO 35003KT 300V010 4500 1500 BR FEW004 15/14 Q1024
  • 170100Z AUTO VRB02KT 4300 BR FEW003 15/15 Q1024

TAF AMD TAF LFMP
Valide du 17 à 03h jusqu'au 18 à 03h UTC


170357Z 1703/1803 VRB03KT 1500 BR FEW004
BECMG 1703/1705 14010KT BKN010
TEMPO 1703/1709 4000 BR OVC003
PROB30
TEMPO 1703/1708 0200 FG VV///
BECMG 1709/1711 CAVOK
TEMPO 1713/1717 14020G30KT
BECMG 1716/1718 BKN010
BECMG 1719/1721 VRB02KT
ATIS : +33 4 68 63 75 12
Pas de NOTAMs connus pour ce terrain.



MET'MAP, la Météo Aéronautique d'un coup d'oeil ! - Copyright ORBIFLY Décembre 2007 - Disclaimer

ORBIFLY MET'MAP TEAM :

Programmation & Développement : Alexandra Zaïnal
Conception & Développement : Baudouin d'Aumeries
Co-Programmation & Développement : Marc-Olivier Méhu
Soutien technique & logistique : Manuel Goepfert

Contact : metmap@orbifly.com




SOURCES & CREDITS :

   NOAA